createdAt,value
2023-04-24T00:03:16.946Z,11.70
2023-04-24T00:13:21.730Z,8.05
2023-04-24T00:23:23.799Z,11.93
2023-04-24T00:33:31.490Z,11.38
2023-04-24T00:43:36.290Z,9.10
2023-04-24T00:53:41.458Z,9.68
2023-04-24T01:03:44.146Z,7.88
2023-04-24T01:13:46.393Z,8.40
2023-04-24T01:23:49.705Z,9.93
2023-04-24T01:33:55.350Z,12.02
2023-04-24T01:43:59.197Z,8.70
2023-04-24T01:54:03.991Z,14.57
2023-04-24T02:04:10.036Z,12.00
2023-04-24T02:14:16.214Z,9.55
2023-04-24T02:24:20.546Z,15.43
2023-04-24T02:34:24.396Z,10.35
2023-04-24T02:44:26.630Z,11.15
2023-04-24T02:54:29.233Z,12.43
2023-04-24T03:04:31.487Z,11.65
2023-04-24T03:14:34.704Z,9.90
2023-04-24T03:24:39.040Z,11.25
2023-04-24T03:34:41.680Z,11.55
2023-04-24T03:44:46.665Z,11.63
2023-04-24T03:54:53.809Z,10.93
2023-04-24T04:04:58.309Z,11.43
2023-04-24T04:15:02.735Z,13.57
2023-04-24T04:25:06.195Z,11.65
2023-04-24T04:35:11.308Z,16.00
2023-04-24T04:45:13.959Z,13.23
2023-04-24T04:55:38.252Z,15.15
2023-04-24T05:05:52.883Z,18.92
2023-04-24T05:15:56.449Z,12.70
2023-04-24T05:25:58.970Z,11.77
2023-04-24T05:36:03.439Z,16.80
2023-04-24T05:46:05.917Z,11.57
2023-04-24T05:56:08.157Z,11.10
2023-04-24T06:06:12.789Z,10.90
2023-04-24T06:16:17.536Z,14.75
2023-04-24T06:26:29.224Z,11.55
2023-04-24T06:36:35.776Z,11.75
2023-04-24T06:46:41.755Z,16.80
2023-04-24T06:56:51.486Z,10.85
2023-04-24T07:06:57.106Z,15.82
2023-04-24T07:16:59.543Z,13.23
2023-04-24T07:27:06.377Z,13.30
2023-04-24T07:37:08.512Z,14.77
2023-04-24T07:47:17.083Z,10.50
2023-04-24T07:57:20.342Z,11.77
2023-04-24T08:07:27.241Z,12.45
2023-04-24T08:17:29.380Z,15.10
2023-04-24T08:27:31.496Z,11.60
2023-04-24T08:37:34.009Z,14.90
2023-04-24T08:47:39.143Z,11.40
2023-04-24T08:57:46.311Z,16.50
2023-04-24T09:07:53.386Z,14.68
2023-04-24T09:17:58.454Z,9.48
2023-04-24T09:28:04.984Z,13.15
2023-04-24T09:38:09.339Z,9.80
2023-04-24T09:48:17.049Z,21.48
2023-04-24T09:58:27.707Z,10.98
2023-04-24T10:08:35.863Z,8.50
2023-04-24T10:18:41.276Z,10.25
2023-04-24T10:28:47.117Z,10.52
2023-04-24T10:38:52.348Z,11.25
2023-04-24T10:48:56.750Z,9.90
2023-04-24T10:59:02.398Z,10.32
2023-04-24T11:09:07.359Z,6.90
2023-04-24T11:19:16.561Z,8.30
2023-04-24T11:29:22.347Z,6.78
2023-04-24T11:39:27.442Z,7.63
2023-04-24T11:49:34.488Z,6.00
2023-04-24T11:59:39.151Z,8.35
2023-04-24T12:09:46.640Z,7.13
2023-04-24T12:19:51.994Z,8.70
2023-04-24T12:30:00.515Z,6.30
2023-04-24T12:40:11.513Z,6.35
2023-04-24T12:50:15.778Z,8.40
2023-04-24T13:00:22.343Z,8.15
2023-04-24T13:10:26.951Z,9.02
2023-04-24T13:20:29.167Z,5.03
2023-04-24T13:30:33.627Z,3.92
2023-04-24T13:40:40.926Z,6.70
2023-04-24T13:50:44.303Z,8.25
2023-04-24T14:00:48.913Z,4.32
2023-04-24T14:10:53.378Z,8.13
2023-04-24T14:21:01.008Z,5.72
2023-04-24T14:31:09.428Z,4.47
2023-04-24T14:41:14.976Z,4.57
2023-04-24T14:51:25.121Z,4.00
2023-04-24T15:01:27.803Z,8.50
2023-04-24T15:11:36.039Z,5.35
2023-04-24T15:21:42.763Z,3.85
2023-04-24T15:31:44.855Z,8.45
2023-04-24T15:41:52.080Z,4.97
2023-04-24T15:52:01.536Z,4.43
2023-04-24T16:02:19.652Z,6.45
2023-04-24T16:12:21.815Z,5.13
2023-04-24T16:22:24.007Z,5.57
2023-04-24T16:32:28.520Z,6.90
2023-04-24T16:42:35.095Z,7.10
2023-04-24T16:52:38.838Z,6.82
2023-04-24T17:02:41.190Z,6.47
2023-04-24T17:12:43.410Z,5.45
2023-04-24T17:22:48.458Z,7.30
2023-04-24T17:32:55.055Z,7.00
2023-04-24T17:42:59.568Z,7.43
2023-04-24T17:53:05.201Z,9.25
2023-04-24T18:03:11.090Z,5.05
2023-04-24T18:13:13.637Z,8.65
2023-04-24T18:23:20.639Z,8.52
2023-04-24T18:33:25.965Z,9.25
2023-04-24T18:43:31.223Z,6.63
2023-04-24T18:53:34.187Z,9.45
2023-04-24T19:03:41.413Z,8.88
2023-04-24T19:13:46.741Z,7.45
2023-04-24T19:23:53.037Z,9.55
2023-04-24T19:33:55.140Z,7.68
2023-04-24T19:44:02.214Z,5.70
2023-04-24T19:54:06.572Z,8.00
2023-04-24T20:04:12.241Z,10.77
2023-04-24T20:14:14.653Z,8.27
2023-04-24T20:24:19.376Z,10.35
2023-04-24T20:34:24.970Z,9.88
2023-04-24T20:44:27.163Z,7.75
2023-04-24T20:54:29.973Z,13.82
2023-04-24T21:04:40.265Z,11.05
2023-04-24T21:14:51.027Z,13.82
2023-04-24T21:24:53.509Z,11.90
2023-04-24T21:35:00.406Z,9.07
2023-04-24T21:45:05.523Z,15.07
2023-04-24T21:55:10.554Z,12.70
2023-04-24T22:05:20.675Z,7.90
2023-04-24T22:15:22.818Z,9.18
2023-04-24T22:25:27.168Z,12.52
2023-04-24T22:35:29.688Z,11.32
2023-04-24T22:45:35.171Z,11.95
2023-04-24T22:55:37.248Z,13.60
2023-04-24T23:05:44.726Z,11.00
2023-04-24T23:15:54.864Z,11.95
2023-04-24T23:25:57.255Z,14.18
2023-04-24T23:35:59.738Z,13.82
2023-04-24T23:46:04.491Z,13.88
2023-04-24T23:56:07.045Z,15.20
